createdAt,value
2022-08-21T00:00:09.373Z,14.94
2022-08-21T00:02:31.720Z,14.94
2022-08-21T00:03:30.063Z,14.91
2022-08-21T00:04:34.128Z,14.89
2022-08-21T00:05:30.542Z,14.89
2022-08-21T00:06:30.860Z,14.92
2022-08-21T00:07:31.241Z,14.91
2022-08-21T00:08:31.446Z,14.92
2022-08-21T00:09:35.622Z,14.92
2022-08-21T00:10:32.028Z,14.91
2022-08-21T00:11:32.331Z,14.89
2022-08-21T00:12:34.171Z,14.91
2022-08-21T00:13:32.911Z,14.89
2022-08-21T00:14:35.086Z,14.89
2022-08-21T00:15:33.477Z,14.89
2022-08-21T00:16:33.793Z,14.92
2022-08-21T00:17:37.941Z,14.92
2022-08-21T00:18:34.368Z,14.91
2022-08-21T00:19:36.581Z,14.92
2022-08-21T00:20:36.742Z,14.92
2022-08-21T00:21:36.925Z,14.92
2022-08-21T00:22:38.562Z,14.89
2022-08-21T00:23:35.841Z,14.85
2022-08-21T00:24:38.022Z,14.78
2022-08-21T00:25:38.222Z,14.70
2022-08-21T00:26:36.891Z,14.66
2022-08-21T00:27:37.830Z,14.65
2022-08-21T00:28:39.231Z,14.59
2022-08-21T00:29:39.414Z,14.58
2022-08-21T00:30:37.929Z,14.54
2022-08-21T00:31:40.099Z,14.50
2022-08-21T00:32:41.444Z,14.54
2022-08-21T00:33:40.491Z,14.53
2022-08-21T00:34:39.004Z,14.60
2022-08-21T00:35:39.318Z,14.62
2022-08-21T00:36:41.505Z,14.66
2022-08-21T00:37:40.710Z,14.65
2022-08-21T00:38:42.090Z,14.65
2022-08-21T00:39:40.504Z,14.66
2022-08-21T00:40:40.785Z,14.65
2022-08-21T00:41:41.082Z,14.66
2022-08-21T00:42:42.272Z,14.70
2022-08-21T00:43:43.644Z,14.77
2022-08-21T00:44:41.915Z,14.78
2022-08-21T00:45:42.213Z,14.72
2022-08-21T00:46:44.401Z,14.68
2022-08-21T00:47:43.585Z,14.63
2022-08-21T00:48:43.095Z,14.60
2022-08-21T00:49:43.409Z,14.59
2022-08-21T00:50:45.600Z,14.58
2022-08-21T00:51:43.988Z,14.59
2022-08-21T00:52:48.157Z,14.65
2022-08-21T00:53:44.612Z,14.63
2022-08-21T00:54:47.799Z,14.60
2022-08-21T00:55:46.993Z,14.58
2022-08-21T00:56:45.546Z,14.55
2022-08-21T00:57:50.335Z,14.55
2022-08-21T00:58:46.175Z,14.53
2022-08-21T00:59:48.348Z,14.50
2022-08-21T01:00:47.003Z,14.47
2022-08-21T01:01:46.980Z,14.44
2022-08-21T01:02:48.771Z,14.43
2022-08-21T01:03:50.093Z,14.44
2022-08-21T01:04:49.675Z,14.48
2022-08-21T01:05:49.863Z,14.51
2022-08-21T01:06:48.508Z,14.50
2022-08-21T01:07:49.600Z,14.50
2022-08-21T01:08:49.119Z,14.47
2022-08-21T01:09:51.281Z,14.45
2022-08-21T01:10:54.781Z,14.47
2022-08-21T01:11:50.108Z,14.53
2022-08-21T01:12:51.188Z,14.55
2022-08-21T01:13:52.511Z,14.59
2022-08-21T01:14:52.702Z,14.59
2022-08-21T01:15:51.206Z,14.66
2022-08-21T01:16:51.549Z,14.72
2022-08-21T01:17:52.743Z,14.77
2022-08-21T01:18:52.117Z,14.72
2022-08-21T01:19:54.290Z,14.69
2022-08-21T01:20:54.457Z,14.69
2022-08-21T01:21:53.904Z,14.72
2022-08-21T01:22:56.363Z,14.78
2022-08-21T01:23:54.473Z,14.81
2022-08-21T01:24:53.864Z,14.82
2022-08-21T01:25:54.187Z,14.88
2022-08-21T01:26:54.492Z,14.92
2022-08-21T01:27:58.674Z,14.94
2022-08-21T01:28:55.082Z,14.96
2022-08-21T01:29:58.725Z,14.99
2022-08-21T01:30:55.630Z,15.02
2022-08-21T01:31:59.266Z,15.03
2022-08-21T01:32:59.388Z,15.03
2022-08-21T01:33:57.346Z,15.03
2022-08-21T01:34:57.763Z,15.02
2022-08-21T01:35:58.595Z,15.02
2022-08-21T01:36:59.327Z,15.00
2022-08-21T01:38:00.555Z,15.00
2022-08-21T01:38:58.920Z,15.00
2022-08-21T01:40:00.284Z,14.99
2022-08-21T01:40:58.574Z,14.97
2022-08-21T01:41:58.883Z,14.97
2022-08-21T01:43:03.051Z,14.96
2022-08-21T01:43:59.471Z,14.94
2022-08-21T01:45:00.663Z,14.92
2022-08-21T01:46:00.025Z,14.89
2022-08-21T01:47:01.219Z,14.92
2022-08-21T01:48:02.576Z,14.94
2022-08-21T01:49:00.836Z,14.96
2022-08-21T01:50:02.993Z,14.92
2022-08-21T01:51:03.184Z,14.89
2022-08-21T01:52:03.382Z,14.86
2022-08-21T01:53:03.555Z,14.85
2022-08-21T01:54:04.233Z,14.86
2022-08-21T01:55:04.426Z,14.89
2022-08-21T01:56:02.950Z,14.94
2022-08-21T01:57:05.117Z,14.94
2022-08-21T01:58:05.301Z,14.97
2022-08-21T01:59:05.487Z,15.00
2022-08-21T02:00:05.676Z,15.00
2022-08-21T02:01:05.927Z,15.04
2022-08-21T02:02:06.585Z,15.06
2022-08-21T02:03:06.783Z,15.09
2022-08-21T02:04:06.964Z,15.11
2022-08-21T02:05:07.651Z,15.14
2022-08-21T02:06:07.941Z,15.17
2022-08-21T02:07:08.408Z,15.21
2022-08-21T02:08:06.551Z,15.22
2022-08-21T02:09:08.738Z,15.27
2022-08-21T02:10:08.891Z,15.29
2022-08-21T02:11:07.402Z,15.35
2022-08-21T02:12:09.578Z,15.36
2022-08-21T02:13:09.770Z,15.37
2022-08-21T02:14:09.952Z,15.40
2022-08-21T02:15:10.145Z,15.40
2022-08-21T02:16:10.473Z,15.43
2022-08-21T02:17:11.025Z,15.49
2022-08-21T02:18:09.420Z,15.52
2022-08-21T02:19:11.631Z,15.54
2022-08-21T02:20:11.820Z,15.55
2022-08-21T02:21:10.328Z,15.54
2022-08-21T02:22:14.493Z,15.52
2022-08-21T02:23:12.725Z,15.55
2022-08-21T02:24:12.993Z,15.54
2022-08-21T02:25:11.501Z,15.55
2022-08-21T02:26:11.832Z,15.55
2022-08-21T02:27:12.160Z,15.57
2022-08-21T02:28:12.417Z,15.54
2022-08-21T02:29:12.715Z,15.55
2022-08-21T02:30:15.041Z,15.52
2022-08-21T02:31:13.319Z,15.52
2022-08-21T02:32:15.846Z,15.55
2022-08-21T02:33:15.821Z,15.51
2022-08-21T02:34:14.215Z,15.54
2022-08-21T02:35:16.386Z,15.51
2022-08-21T02:36:14.775Z,15.44
2022-08-21T02:37:15.873Z,15.42
2022-08-21T02:38:15.389Z,15.36
2022-08-21T02:39:15.695Z,15.33
2022-08-21T02:40:18.974Z,15.29
2022-08-21T02:41:16.274Z,15.31
2022-08-21T02:42:20.418Z,15.29
2022-08-21T02:43:18.667Z,15.28
2022-08-21T02:44:17.166Z,15.22
2022-08-21T02:45:19.358Z,15.19
2022-08-21T02:46:19.555Z,15.21
2022-08-21T02:47:21.078Z,15.24
2022-08-21T02:48:18.355Z,15.25
2022-08-21T02:49:18.665Z,15.24
2022-08-21T02:50:18.999Z,15.25
2022-08-21T02:51:21.159Z,15.28
2022-08-21T02:52:21.060Z,15.25
2022-08-21T02:53:19.806Z,15.24
2022-08-21T02:54:20.125Z,15.24
2022-08-21T02:55:20.432Z,15.22
2022-08-21T02:56:20.744Z,15.22
2022-08-21T02:57:24.913Z,15.24
2022-08-21T02:58:23.149Z,15.28
2022-08-21T02:59:21.655Z,15.29
2022-08-21T03:00:21.968Z,15.35
2022-08-21T03:01:22.330Z,15.35
2022-08-21T03:02:26.590Z,15.39
2022-08-21T03:03:22.849Z,15.44
2022-08-21T03:04:23.171Z,15.52
2022-08-21T03:05:23.481Z,15.55
2022-08-21T03:06:23.791Z,15.58
2022-08-21T03:07:26.051Z,15.58
2022-08-21T03:08:27.779Z,15.64
2022-08-21T03:09:24.570Z,15.62
2022-08-21T03:10:24.883Z,15.67
2022-08-21T03:11:27.073Z,15.72
2022-08-21T03:12:30.025Z,15.70
2022-08-21T03:13:27.469Z,15.72
2022-08-21T03:14:29.124Z,15.68
2022-08-21T03:15:27.336Z,15.65
2022-08-21T03:16:31.974Z,15.61
2022-08-21T03:17:30.744Z,15.61
2022-08-21T03:18:28.969Z,15.61
2022-08-21T03:19:29.153Z,15.61
2022-08-21T03:20:27.911Z,15.57
2022-08-21T03:21:28.224Z,15.57
2022-08-21T03:22:32.439Z,15.55
2022-08-21T03:23:32.905Z,15.52
2022-08-21T03:24:30.049Z,15.51
2022-08-21T03:25:39.664Z,15.46
2022-08-21T03:26:31.650Z,15.44
2022-08-21T03:27:31.146Z,15.42
2022-08-21T03:28:32.282Z,15.42
2022-08-21T03:29:31.619Z,15.44
2022-08-21T03:30:32.852Z,15.44
2022-08-21T03:31:32.198Z,15.42
2022-08-21T03:32:35.396Z,15.40
2022-08-21T03:33:31.838Z,15.39
2022-08-21T03:34:34.026Z,15.37
2022-08-21T03:35:32.389Z,15.35
2022-08-21T03:36:32.684Z,15.33
2022-08-21T03:37:35.917Z,15.31
2022-08-21T03:38:35.128Z,15.28
2022-08-21T03:39:34.342Z,15.27
2022-08-21T03:40:35.499Z,15.25
2022-08-21T03:41:35.078Z,15.21
2022-08-21T03:42:38.318Z,15.19
2022-08-21T03:43:34.738Z,15.21
2022-08-21T03:44:36.938Z,15.21
2022-08-21T03:45:35.338Z,15.18
2022-08-21T03:46:35.655Z,15.17
2022-08-21T03:47:39.799Z,15.14
2022-08-21T03:48:38.035Z,15.10
2022-08-21T03:49:36.570Z,15.03
2022-08-21T03:50:40.743Z,14.97
2022-08-21T03:51:37.158Z,14.91
2022-08-21T03:52:40.426Z,14.88
2022-08-21T03:53:39.533Z,14.82
2022-08-21T03:54:38.075Z,14.79
2022-08-21T03:55:40.247Z,14.77
2022-08-21T03:56:38.648Z,14.69
2022-08-21T03:57:39.941Z,14.63
2022-08-21T03:58:39.217Z,14.60
2022-08-21T03:59:39.550Z,14.59
2022-08-21T04:00:39.916Z,14.55
2022-08-21T04:01:42.194Z,14.53
2022-08-21T04:02:41.250Z,14.53
2022-08-21T04:03:42.660Z,14.53
2022-08-21T04:04:41.069Z,14.51
2022-08-21T04:05:43.259Z,14.54
2022-08-21T04:06:41.686Z,14.58
2022-08-21T04:07:43.873Z,14.60
2022-08-21T04:08:44.226Z,14.62
2022-08-21T04:09:42.390Z,14.65
2022-08-21T04:10:44.580Z,14.69
2022-08-21T04:11:43.013Z,14.72
2022-08-21T04:12:44.129Z,14.73
2022-08-21T04:13:45.519Z,14.77
2022-08-21T04:14:43.808Z,14.79
2022-08-21T04:15:46.003Z,14.84
2022-08-21T04:16:46.185Z,14.82
2022-08-21T04:17:48.341Z,14.85
2022-08-21T04:18:46.643Z,14.84
2022-08-21T04:19:45.374Z,14.84
2022-08-21T04:20:49.900Z,14.81
2022-08-21T04:21:47.746Z,14.79
2022-08-21T04:22:49.918Z,14.79
2022-08-21T04:23:46.658Z,14.77
2022-08-21T04:24:46.953Z,14.73
2022-08-21T04:25:49.135Z,14.70
2022-08-21T04:26:47.575Z,14.72
2022-08-21T04:27:49.818Z,14.77
2022-08-21T04:28:48.115Z,14.77
2022-08-21T04:29:48.342Z,14.78
2022-08-21T04:30:50.539Z,14.79
2022-08-21T04:31:48.833Z,14.78
2022-08-21T04:32:50.227Z,14.79
2022-08-21T04:33:49.372Z,14.82
2022-08-21T04:34:51.555Z,14.81
2022-08-21T04:35:49.857Z,14.84
2022-08-21T04:36:52.044Z,14.82
2022-08-21T04:37:52.317Z,14.86
2022-08-21T04:38:52.544Z,14.86
2022-08-21T04:39:53.547Z,14.86
2022-08-21T04:40:51.094Z,14.88
2022-08-21T04:41:53.279Z,14.91
2022-08-21T04:42:52.514Z,14.91
2022-08-21T04:43:53.671Z,14.92
2022-08-21T04:44:52.092Z,14.94
2022-08-21T04:45:52.322Z,14.92
2022-08-21T04:46:54.508Z,14.96
2022-08-21T04:47:55.670Z,14.97
2022-08-21T04:48:53.112Z,15.02
2022-08-21T04:49:53.346Z,15.00
2022-08-21T04:50:53.578Z,15.04
2022-08-21T04:51:55.768Z,15.07
2022-08-21T04:52:58.088Z,15.09
2022-08-21T04:53:54.306Z,15.14
2022-08-21T04:54:55.084Z,15.18
2022-08-21T04:55:54.830Z,15.21
2022-08-21T04:56:57.021Z,15.24
2022-08-21T04:57:56.214Z,15.29
2022-08-21T04:58:55.641Z,15.36
2022-08-21T04:59:55.870Z,15.43
2022-08-21T05:00:56.102Z,15.54
2022-08-21T05:01:58.386Z,15.76
2022-08-21T05:02:59.714Z,16.04
2022-08-21T05:03:56.979Z,16.20
2022-08-21T05:04:59.202Z,16.20
2022-08-21T05:05:57.619Z,16.32
2022-08-21T05:06:57.863Z,16.58
2022-08-21T05:08:02.023Z,16.79
2022-08-21T05:09:02.010Z,17.01
2022-08-21T05:10:00.535Z,17.15
2022-08-21T05:11:00.683Z,17.29
2022-08-21T05:11:59.246Z,17.46
2022-08-21T05:13:03.318Z,17.59
2022-08-21T05:13:59.779Z,17.60
2022-08-21T05:15:01.954Z,17.70
2022-08-21T05:16:02.152Z,17.83
2022-08-21T05:17:00.551Z,17.86
2022-08-21T05:18:02.749Z,17.90
2022-08-21T05:19:02.956Z,17.95
2022-08-21T05:20:01.377Z,18.04
2022-08-21T05:21:05.536Z,18.00
2022-08-21T05:22:05.208Z,18.00
2022-08-21T05:23:05.407Z,18.01
2022-08-21T05:24:05.581Z,18.04
2022-08-21T05:25:03.587Z,18.13
2022-08-21T05:26:05.967Z,18.16
2022-08-21T05:27:04.167Z,18.23
2022-08-21T05:28:05.430Z,18.28
2022-08-21T05:29:08.530Z,18.34
2022-08-21T05:30:05.166Z,18.37
2022-08-21T05:31:06.365Z,18.49
2022-08-21T05:32:04.803Z,18.59
2022-08-21T05:33:05.048Z,18.71
2022-08-21T05:34:07.239Z,18.83
2022-08-21T05:35:07.438Z,18.89
2022-08-21T05:36:05.844Z,19.09
2022-08-21T05:37:07.841Z,19.16
2022-08-21T05:38:16.895Z,19.15
2022-08-21T05:39:09.440Z,19.22
2022-08-21T05:40:22.289Z,19.33
2022-08-21T05:41:08.357Z,19.41
2022-08-21T05:42:07.633Z,19.52
2022-08-21T05:43:08.771Z,19.48
2022-08-21T05:44:10.626Z,19.48
2022-08-21T05:45:10.319Z,19.52
2022-08-21T05:46:08.755Z,19.56
2022-08-21T05:47:08.991Z,19.58
2022-08-21T05:48:12.151Z,19.71
2022-08-21T05:49:11.348Z,19.74
2022-08-21T05:50:10.579Z,19.91
2022-08-21T05:51:10.149Z,19.91
2022-08-21T05:52:12.319Z,20.00
2022-08-21T05:53:12.531Z,19.91
2022-08-21T05:54:12.725Z,20.10
2022-08-21T05:55:12.912Z,19.99
2022-08-21T05:56:13.102Z,20.06
2022-08-21T05:57:15.758Z,20.10
2022-08-21T05:58:12.230Z,19.85
2022-08-21T05:59:15.404Z,19.81
2022-08-21T06:00:12.724Z,19.84
2022-08-21T06:01:13.971Z,19.95
2022-08-21T06:02:13.285Z,20.21
2022-08-21T06:03:15.463Z,20.14
2022-08-21T06:04:15.653Z,20.25
2022-08-21T06:05:14.094Z,19.99
2022-08-21T06:06:17.292Z,19.99
2022-08-21T06:07:15.432Z,20.18
2022-08-21T06:08:14.865Z,20.52
2022-08-21T06:09:17.065Z,20.60
2022-08-21T06:10:17.261Z,20.51
2022-08-21T06:11:17.449Z,20.60
2022-08-21T06:12:19.049Z,20.59
2022-08-21T06:13:16.250Z,20.47
2022-08-21T06:14:18.434Z,20.34
2022-08-21T06:15:18.641Z,20.28
2022-08-21T06:16:18.828Z,20.21
2022-08-21T06:17:20.359Z,20.16
2022-08-21T06:18:17.683Z,20.11
2022-08-21T06:19:19.872Z,20.10
2022-08-21T06:20:18.177Z,20.25
2022-08-21T06:21:20.388Z,20.19
2022-08-21T06:22:19.616Z,20.13
2022-08-21T06:23:20.438Z,20.26
2022-08-21T06:24:19.242Z,20.44
2022-08-21T06:25:19.483Z,20.52
2022-08-21T06:26:21.665Z,20.41
2022-08-21T06:27:24.754Z,20.43
2022-08-21T06:28:23.208Z,20.60
2022-08-21T06:29:22.382Z,20.69
2022-08-21T06:30:22.563Z,20.75
2022-08-21T06:31:21.132Z,20.55
2022-08-21T06:32:25.294Z,20.48
2022-08-21T06:33:21.631Z,20.58
2022-08-21T06:34:21.876Z,20.66
2022-08-21T06:35:22.121Z,20.74
2022-08-21T06:36:22.361Z,20.70
2022-08-21T06:37:25.602Z,20.69
2022-08-21T06:38:22.928Z,20.80
2022-08-21T06:39:25.509Z,20.78
2022-08-21T06:40:24.441Z,20.80
2022-08-21T06:41:26.474Z,20.82
2022-08-21T06:42:27.903Z,20.81
2022-08-21T06:43:35.703Z,21.03
2022-08-21T06:44:26.448Z,21.39
2022-08-21T06:45:24.886Z,21.43
2022-08-21T06:46:25.126Z,21.48
2022-08-21T06:47:28.778Z,21.66
2022-08-21T06:48:25.614Z,21.48
2022-08-21T06:49:25.891Z,21.46
2022-08-21T06:50:28.265Z,21.35
2022-08-21T06:51:28.443Z,21.32
2022-08-21T06:52:29.799Z,21.42
2022-08-21T06:53:26.998Z,21.48
2022-08-21T06:54:29.192Z,21.45
2022-08-21T06:55:29.283Z,21.27
2022-08-21T06:56:29.709Z,21.48
2022-08-21T06:57:30.859Z,21.45
2022-08-21T06:58:30.099Z,21.52
2022-08-21T06:59:28.742Z,21.40
2022-08-21T07:00:30.845Z,21.75
2022-08-21T07:01:29.338Z,22.06
2022-08-21T07:02:30.368Z,21.85
2022-08-21T07:03:29.802Z,21.75
2022-08-21T07:04:30.040Z,21.54
2022-08-21T07:05:32.221Z,21.52
2022-08-21T07:06:30.540Z,21.42
2022-08-21T07:07:30.905Z,21.57
2022-08-21T07:08:31.159Z,21.45
2022-08-21T07:09:31.403Z,21.33
2022-08-21T07:10:33.583Z,21.77
2022-08-21T07:11:31.933Z,22.06
2022-08-21T07:12:34.018Z,22.15
2022-08-21T07:13:34.392Z,22.35
2022-08-21T07:14:32.706Z,22.10
2022-08-21T07:15:32.939Z,21.83
2022-08-21T07:16:35.162Z,21.51
2022-08-21T07:17:34.305Z,21.85
2022-08-21T07:18:33.733Z,21.69
2022-08-21T07:19:33.973Z,22.02
2022-08-21T07:20:34.216Z,22.08
2022-08-21T07:21:36.393Z,22.30
2022-08-21T07:22:35.616Z,22.32
2022-08-21T07:23:34.944Z,22.08
2022-08-21T07:24:35.170Z,21.75
2022-08-21T07:25:35.432Z,22.11
2022-08-21T07:26:37.615Z,22.39
2022-08-21T07:27:39.955Z,22.66
2022-08-21T07:28:40.149Z,22.83
2022-08-21T07:29:36.489Z,23.18
2022-08-21T07:30:40.129Z,23.58
2022-08-21T07:31:40.311Z,23.41
2022-08-21T07:32:40.290Z,23.24
2022-08-21T07:33:39.279Z,23.37
2022-08-21T07:34:37.725Z,23.25
2022-08-21T07:35:39.924Z,23.23
2022-08-21T07:36:40.108Z,23.25
2022-08-21T07:37:39.295Z,23.09
2022-08-21T07:38:38.863Z,22.98
2022-08-21T07:39:39.162Z,23.05
2022-08-21T07:40:39.389Z,23.36
2022-08-21T07:41:41.732Z,23.41
2022-08-21T07:42:42.921Z,23.76
2022-08-21T07:43:45.799Z,23.84
2022-08-21T07:44:41.442Z,24.05
2022-08-21T07:45:42.794Z,24.02
2022-08-21T07:46:44.963Z,24.24
2022-08-21T07:47:44.484Z,24.32
2022-08-21T07:48:42.593Z,24.10
2022-08-21T07:49:42.754Z,24.24
2022-08-21T07:50:44.107Z,24.13
2022-08-21T07:51:43.331Z,24.29
2022-08-21T07:52:45.796Z,24.48
2022-08-21T07:53:42.999Z,24.20
2022-08-21T07:54:43.246Z,24.17
2022-08-21T07:55:46.441Z,24.35
2022-08-21T07:56:45.609Z,24.60
2022-08-21T07:57:47.106Z,24.78
2022-08-21T07:58:46.005Z,24.85
2022-08-21T07:59:46.213Z,24.73
2022-08-21T08:00:45.792Z,24.55
2022-08-21T08:01:45.248Z,24.26
2022-08-21T08:02:46.937Z,24.17
2022-08-21T08:03:47.652Z,24.21
2022-08-21T08:04:50.581Z,24.02
2022-08-21T08:05:47.203Z,23.13
2022-08-21T08:06:46.503Z,22.73
2022-08-21T08:07:50.699Z,23.17
2022-08-21T08:08:48.943Z,23.61
2022-08-21T08:09:47.382Z,23.65
2022-08-21T08:10:47.622Z,23.81
2022-08-21T08:11:47.856Z,23.93
2022-08-21T08:12:52.074Z,24.33
2022-08-21T08:13:48.401Z,24.60
2022-08-21T08:14:50.574Z,24.36
2022-08-21T08:15:48.892Z,24.39
2022-08-21T08:16:49.131Z,24.13
2022-08-21T08:17:50.308Z,24.16
2022-08-21T08:18:51.134Z,24.08
2022-08-21T08:19:51.811Z,23.81
2022-08-21T08:20:52.003Z,24.03
2022-08-21T08:21:52.193Z,24.10
2022-08-21T08:22:53.665Z,24.17
2022-08-21T08:23:52.545Z,24.26
2022-08-21T08:24:53.204Z,23.93
2022-08-21T08:25:53.358Z,24.06
2022-08-21T08:26:53.928Z,24.29
2022-08-21T08:27:54.984Z,24.30
2022-08-21T08:28:52.302Z,24.73
2022-08-21T08:29:54.472Z,24.57
2022-08-21T08:30:54.662Z,24.40
2022-08-21T08:31:54.860Z,24.54
2022-08-21T08:32:56.297Z,24.98
2022-08-21T08:33:55.737Z,24.96
2022-08-21T08:34:55.915Z,24.99
2022-08-21T08:35:56.116Z,25.03
2022-08-21T08:36:56.294Z,24.40
2022-08-21T08:37:57.879Z,24.54
2022-08-21T08:38:55.196Z,24.16
2022-08-21T08:39:55.506Z,24.13
2022-08-21T08:40:57.637Z,24.36
2022-08-21T08:41:58.714Z,24.91
2022-08-21T08:42:58.063Z,24.99
2022-08-21T08:43:56.644Z,24.93
2022-08-21T08:44:58.835Z,25.16
2022-08-21T08:45:59.019Z,25.04
2022-08-21T08:46:57.623Z,25.31
2022-08-21T08:47:58.702Z,25.46
2022-08-21T08:48:59.916Z,25.51
2022-08-21T08:50:00.110Z,25.46
2022-08-21T08:51:00.273Z,24.93
2022-08-21T08:51:58.823Z,24.78
2022-08-21T08:53:00.218Z,25.11
2022-08-21T08:53:59.381Z,25.06
2022-08-21T08:54:59.622Z,24.99
2022-08-21T08:56:01.800Z,24.81
2022-08-21T08:57:00.117Z,24.93
2022-08-21T08:58:01.315Z,24.95
2022-08-21T08:59:00.644Z,25.25
2022-08-21T09:00:00.886Z,25.48
2022-08-21T09:01:01.288Z,25.59
2022-08-21T09:02:01.512Z,25.63
2022-08-21T09:03:03.704Z,25.43
2022-08-21T09:04:03.892Z,25.33
2022-08-21T09:05:02.318Z,25.43
2022-08-21T09:06:02.559Z,25.48
2022-08-21T09:07:04.823Z,25.78
2022-08-21T09:08:05.000Z,25.90
2022-08-21T09:09:05.184Z,25.93
2022-08-21T09:10:03.739Z,26.34
2022-08-21T09:11:05.836Z,25.93
2022-08-21T09:12:06.001Z,25.36
2022-08-21T09:13:04.558Z,25.26
2022-08-21T09:14:04.823Z,25.38
2022-08-21T09:15:05.099Z,25.51
2022-08-21T09:16:05.339Z,25.66
2022-08-21T09:17:05.575Z,25.59
2022-08-21T09:18:07.937Z,25.26
2022-08-21T09:19:06.062Z,25.22
2022-08-21T09:20:06.310Z,25.07
2022-08-21T09:21:08.524Z,25.36
2022-08-21T09:22:06.828Z,25.41
2022-08-21T09:23:09.032Z,25.50
2022-08-21T09:24:09.219Z,25.18
2022-08-21T09:25:07.604Z,25.29
2022-08-21T09:26:09.295Z,25.58
2022-08-21T09:27:08.101Z,25.53
2022-08-21T09:28:10.278Z,25.40
2022-08-21T09:29:08.590Z,24.91
2022-08-21T09:30:08.829Z,24.81
2022-08-21T09:31:09.120Z,25.04
2022-08-21T09:32:09.401Z,25.43
2022-08-21T09:33:11.553Z,25.41
2022-08-21T09:34:09.984Z,25.26
2022-08-21T09:35:10.226Z,25.38
2022-08-21T09:36:10.478Z,24.89
2022-08-21T09:37:10.729Z,24.76
2022-08-21T09:38:12.904Z,24.80
2022-08-21T09:39:11.216Z,24.74
2022-08-21T09:40:13.463Z,24.93
2022-08-21T09:41:11.794Z,24.88
2022-08-21T09:42:12.043Z,25.35
2022-08-21T09:43:14.225Z,24.86
2022-08-21T09:44:12.568Z,24.68
2022-08-21T09:45:12.813Z,25.11
2022-08-21T09:46:13.056Z,25.17
2022-08-21T09:47:14.282Z,25.50
2022-08-21T09:48:15.504Z,25.53
2022-08-21T09:49:16.504Z,25.69
2022-08-21T09:50:14.063Z,25.21
2022-08-21T09:51:16.250Z,25.21
2022-08-21T09:52:15.601Z,25.14
2022-08-21T09:53:14.904Z,25.43
2022-08-21T09:54:18.547Z,25.10
2022-08-21T09:55:15.385Z,24.39
2022-08-21T09:56:17.507Z,23.54
2022-08-21T09:57:18.947Z,23.98
2022-08-21T09:58:18.326Z,24.14
2022-08-21T09:59:19.737Z,24.58
2022-08-21T10:00:16.685Z,24.86
2022-08-21T10:01:17.887Z,25.16
2022-08-21T10:02:20.260Z,25.10
2022-08-21T10:03:19.371Z,25.08
2022-08-21T10:04:19.570Z,25.50
2022-08-21T10:05:18.147Z,25.59
2022-08-21T10:06:18.414Z,25.85
2022-08-21T10:07:21.570Z,26.09
2022-08-21T10:08:22.250Z,25.43
2022-08-21T10:09:21.700Z,25.14
2022-08-21T10:10:20.261Z,25.29
2022-08-21T10:11:20.686Z,24.88
2022-08-21T10:12:21.462Z,24.95
2022-08-21T10:13:21.252Z,24.95
2022-08-21T10:14:22.456Z,25.29
2022-08-21T10:15:21.826Z,25.38
2022-08-21T10:16:21.987Z,25.06
2022-08-21T10:17:22.902Z,25.22
2022-08-21T10:18:22.561Z,25.07
2022-08-21T10:19:23.921Z,25.10
2022-08-21T10:20:22.260Z,25.21
2022-08-21T10:21:22.510Z,25.59
2022-08-21T10:22:25.765Z,25.62
2022-08-21T10:23:23.100Z,25.10
2022-08-21T10:24:31.606Z,25.26
2022-08-21T10:25:26.486Z,25.32
2022-08-21T10:26:23.941Z,25.48
2022-08-21T10:27:28.156Z,25.11
2022-08-21T10:28:24.498Z,25.26
2022-08-21T10:29:26.676Z,25.23
2022-08-21T10:30:26.026Z,25.63
2022-08-21T10:31:26.180Z,26.25
2022-08-21T10:32:29.499Z,25.75
2022-08-21T10:33:25.849Z,25.47
2022-08-21T10:34:28.027Z,25.51
2022-08-21T10:35:26.349Z,25.40
2022-08-21T10:36:26.590Z,25.43
2022-08-21T10:37:30.760Z,25.43
2022-08-21T10:38:48.827Z,25.32
2022-08-21T10:39:35.398Z,25.69
2022-08-21T10:40:30.369Z,25.85
2022-08-21T10:41:29.555Z,25.62
2022-08-21T10:42:30.692Z,25.77
2022-08-21T10:43:30.439Z,26.03
2022-08-21T10:44:30.618Z,26.38
2022-08-21T10:45:30.814Z,26.60
2022-08-21T10:46:31.048Z,25.59
2022-08-21T10:47:32.583Z,25.26
2022-08-21T10:48:29.905Z,25.70
2022-08-21T10:49:34.075Z,26.06
2022-08-21T10:50:32.320Z,26.05
2022-08-21T10:51:30.646Z,25.25
2022-08-21T10:52:33.896Z,25.33
2022-08-21T10:53:31.232Z,25.48
2022-08-21T10:54:32.417Z,25.32
2022-08-21T10:55:33.270Z,25.38
2022-08-21T10:56:31.955Z,24.80
2022-08-21T10:57:36.127Z,25.01
2022-08-21T10:58:32.470Z,25.50
2022-08-21T10:59:38.593Z,25.38
2022-08-21T11:00:33.952Z,25.40
2022-08-21T11:01:35.245Z,25.43
2022-08-21T11:02:33.576Z,25.38
2022-08-21T11:03:35.769Z,25.55
2022-08-21T11:04:46.350Z,26.02
2022-08-21T11:05:37.251Z,25.60
2022-08-21T11:06:34.730Z,25.10
2022-08-21T11:07:36.927Z,24.98
2022-08-21T11:08:35.301Z,25.18
2022-08-21T11:09:37.509Z,25.13
2022-08-21T11:10:40.822Z,25.65
2022-08-21T11:11:37.100Z,25.72
2022-08-21T11:12:36.381Z,25.70
2022-08-21T11:13:38.561Z,25.75
2022-08-21T11:14:38.748Z,25.53
2022-08-21T11:15:40.133Z,25.04
2022-08-21T11:16:39.130Z,24.92
2022-08-21T11:17:39.293Z,25.14
2022-08-21T11:18:38.560Z,25.32
2022-08-21T11:19:38.237Z,25.51
2022-08-21T11:20:42.425Z,25.41
2022-08-21T11:21:40.658Z,25.40
2022-08-21T11:22:39.971Z,25.51
2022-08-21T11:23:40.411Z,25.26
2022-08-21T11:24:39.686Z,25.35
2022-08-21T11:25:41.869Z,25.85
2022-08-21T11:26:40.178Z,25.98
2022-08-21T11:27:40.420Z,26.22
2022-08-21T11:28:42.179Z,25.80
2022-08-21T11:29:42.914Z,25.69
2022-08-21T11:30:41.231Z,25.38
2022-08-21T11:31:41.479Z,25.66
2022-08-21T11:32:41.726Z,25.46
2022-08-21T11:33:43.009Z,25.03
2022-08-21T11:34:44.278Z,25.43
2022-08-21T11:35:44.440Z,25.68
2022-08-21T11:36:46.980Z,25.44
2022-08-21T11:37:43.207Z,25.22
2022-08-21T11:38:47.411Z,25.54
2022-08-21T11:39:43.791Z,25.04
2022-08-21T11:40:45.932Z,24.80
2022-08-21T11:41:44.370Z,24.93
2022-08-21T11:42:44.618Z,24.77
2022-08-21T11:43:49.775Z,24.86
2022-08-21T11:44:45.119Z,25.17
2022-08-21T11:45:47.303Z,25.13
2022-08-21T11:46:45.624Z,25.22
2022-08-21T11:47:45.880Z,24.76
2022-08-21T11:48:46.946Z,24.58
2022-08-21T11:49:46.372Z,25.01
2022-08-21T11:50:46.632Z,25.48
2022-08-21T11:51:48.828Z,26.18
2022-08-21T11:52:47.157Z,26.29
2022-08-21T11:53:49.848Z,26.18
2022-08-21T11:54:48.648Z,26.13
2022-08-21T11:55:47.956Z,25.25
2022-08-21T11:56:50.148Z,24.45
2022-08-21T11:57:48.453Z,24.84
2022-08-21T11:58:49.570Z,24.63
2022-08-21T11:59:50.907Z,25.35
2022-08-21T12:00:49.353Z,24.53
2022-08-21T12:01:51.604Z,23.92
2022-08-21T12:02:53.640Z,24.57
2022-08-21T12:03:53.194Z,25.33
2022-08-21T12:04:50.402Z,25.38
2022-08-21T12:05:54.531Z,25.18
2022-08-21T12:06:54.193Z,25.31
2022-08-21T12:07:51.168Z,26.05
2022-08-21T12:08:52.453Z,25.73
2022-08-21T12:09:51.772Z,25.03
2022-08-21T12:10:53.964Z,24.13
2022-08-21T12:11:52.482Z,23.63
2022-08-21T12:12:52.680Z,23.32
2022-08-21T12:13:56.884Z,22.91
2022-08-21T12:14:53.217Z,22.65
2022-08-21T12:15:53.449Z,22.50
2022-08-21T12:16:55.633Z,22.50
2022-08-21T12:17:53.949Z,22.50
2022-08-21T12:18:54.203Z,22.48
2022-08-21T12:19:54.487Z,22.41
2022-08-21T12:20:54.731Z,22.78
2022-08-21T12:21:56.910Z,23.71
2022-08-21T12:22:57.269Z,24.43
2022-08-21T12:23:56.383Z,25.41
2022-08-21T12:24:55.834Z,26.00
2022-08-21T12:25:58.009Z,26.33
2022-08-21T12:26:56.332Z,25.55
2022-08-21T12:27:56.578Z,25.33
2022-08-21T12:29:00.260Z,25.47
2022-08-21T12:29:57.079Z,25.04
2022-08-21T12:30:59.291Z,25.04
2022-08-21T12:31:59.439Z,25.25
2022-08-21T12:32:59.800Z,25.35
2022-08-21T12:34:00.140Z,25.65
2022-08-21T12:35:00.352Z,25.62
2022-08-21T12:36:00.570Z,25.53
2022-08-21T12:37:00.739Z,25.44
2022-08-21T12:38:01.411Z,24.80
2022-08-21T12:39:00.582Z,24.47
2022-08-21T12:40:01.060Z,24.96
2022-08-21T12:42:18.816Z,25.53
2022-08-21T12:43:19.021Z,25.81
2022-08-21T12:44:17.599Z,26.18
2022-08-21T12:45:19.798Z,25.85
2022-08-21T12:46:19.979Z,25.66
2022-08-21T12:47:18.421Z,25.99
2022-08-21T12:48:18.683Z,25.84
2022-08-21T12:49:19.879Z,25.54
2022-08-21T12:50:19.374Z,25.50
2022-08-21T12:51:19.600Z,25.25
2022-08-21T12:52:21.778Z,25.22
2022-08-21T12:53:20.869Z,24.92
2022-08-21T12:54:20.417Z,24.85
2022-08-21T12:55:20.649Z,24.77
2022-08-21T12:56:20.900Z,24.85
2022-08-21T12:57:23.074Z,24.47
2022-08-21T12:58:21.382Z,24.85